CheckWX is a tool to help pilots better visualize weather data.  It is not intended as a substitute for an official pre-flight weather briefing.

03:13:53 UTC

KDUH METAR
Toledo Suburban Airport
Lambertville, Michigan, USA
Current

19 mins ago

KDUH 260255Z AUTO 22004KT 10SM CLR 22/18 A2997 RMK AO2 T02200178
Observed
May-26 @ 02:55 UTC
Wind
  • 220° at 4 KTS
Visibility
10 SM
Flight Rules
VFR
Cloud Levels
  • Clear skies
Temperature
22°C / 72°F
Dewpoint
18°C / 64°F
Humidity
78%
Altimeter
29.97" Hg
Pressure
1014.92 hPa
Previous

38 mins ago

KDUH 260236Z AUTO 22004KT 10SM CLR 23/18 A2997 RMK AO2 T02250175
Observed
May-26 @ 02:36 UTC
Wind
  • 220° at 4 KTS
Visibility
10 SM
Flight Rules
VFR
Cloud Levels
  • Clear skies
Temperature
23°C / 73°F
Dewpoint
18°C / 64°F
Humidity
74%
Altimeter
29.97" Hg
Pressure
1014.92 hPa
Previous

58 mins ago

KDUH 260216Z AUTO 23004KT 10SM CLR 23/17 A2996 RMK AO2 T02310174
Observed
May-26 @ 02:16 UTC
Wind
  • 230° at 4 KTS
Visibility
10 SM
Flight Rules
VFR
Cloud Levels
  • Clear skies
Temperature
23°C / 73°F
Dewpoint
17°C / 63°F
Humidity
69%
Altimeter
29.96" Hg
Pressure
1014.52 hPa